Aviation Digital Data Service (ADDS)

Output produced by METARs form (0519 UTC 27 July 2016)
found at http://aviationweather.gov/adds/metars/
 
KDAG 270450Z AUTO 25016KT 10SM CLR 36/09 A2986 RMK AO2 SLP077 T03610094
KDAG 262320Z 2700/2724 VRB06KT P6SM SKC 
     FM270200 25011KT P6SM SKC 
     FM271500 30008KT P6SM SKC 
     FM272000 03008KT P6SM SKC
       
KEDW 270458Z 22016G22KT 40SM CLR 31/05 A2990 RMK AO2A SLP094 T03130047
TAF KEDW 270159Z 2702/2808 23015G25KT 9999 FEW120 QNH2984INS 
     BECMG 2703/2704 24012G18KT 9999 SKC QNH2984INS 
     BECMG 2704/2705 22009KT 9999 SKC QNH2984INS 
     BECMG 2721/2722 23012G18KT 9999 FEW250 QNH2986INS 
     TEMPO 2723/2802 24020G30KT 520009 
     BECMG 2804/2805 22009KT 9999 SCT250 QNH2985INS TX42/2723Z TN24/2713Z
       
KVCV 270515Z AUTO 21010KT 10SM CLR 31/05 A2998 RMK AO2
KONT 270453Z 30008KT 10SM CLR 27/07 A2990 RMK AO2 SLP106 T02720067
KONT 262320Z 2700/2806 27013KT P6SM SCT120 
     FM270400 VRB04KT P6SM SKC 
     FM272100 25012G18KT P6SM SCT100
       
KSNA 270453Z 26003KT 10SM CLR 22/18 A2988 RMK AO2 SLP116 T02220183
KSNA 262320Z 2700/2724 23010KT P6SM SKC 
     FM270300 VRB04KT P6SM SKC 
     TEMPO 2711/2715 BKN009 
     FM271900 22010KT P6SM SKC
       
KSAN 270451Z 28005KT 10SM FEW180 SCT250 22/18 A2990 RMK AO2 SLP126 T02170183
KSAN 270328Z 2703/2806 30005KT P6SM SKC 
     FM270800 VRB04KT P6SM BKN009 
     FM271500 VRB04KT P6SM SCT010 
     FM271900 30010KT P6SM SKC 
     FM280200 VRB04KT P6SM SKC
       
KNID 270456Z 19006KT 10SM CLR 34/06 A2986 RMK AO2 SLP081 T03440061 $
TAF KNID 2623/2723 19010KT 9999 SKC QNH2981INS WND 21006KT AFT 2704 
     TEMPO 2723/2801 19010G18KT 
     BECMG 2720/2722 19010G20KT SKC 510009 QNH2983INS T23/2713Z T44/2722Z LAST NO AMD AFT 2705/ NEXT 2715
       
KNXP 270456Z 35004KT 10SM FEW150 36/08 A2992 RMK AO2 SLP087 T03610083
TAF KNXP 2703/2803 25012KT 9999 FEW150 QNH2985INS 
     BECMG 2712/2714 VRB06KT 9999 FEW200 QNH2989INS 
     FM272130 23010KT 9999 FEW200 QNH2983INS 
     TEMPO 2722/2803 24012G18KT T28/2713Z T42/2723Z
       
KPSP 270453Z 31010KT 10SM CLR 38/12 A2976 RMK AO2 SLP070 T03830122
KPSP 270408Z 2704/2724 31010G18KT P6SM SKC 
     FM270700 VRB05KT P6SM SKC 
     FM271700 11009KT P6SM SKC
       
KLAX 270453Z 26005KT 10SM FEW010 21/18 A2989 RMK AO2 SLP118 T02110183
KLAX 270333Z 2704/2806 26007KT P6SM SCT008 SCT200 
     FM270800 VRB03KT 6SM BR BKN006 
     FM271630 25007KT P6SM SCT010 
     FM272100 26013KT P6SM SCT010 
     FM280400 26008KT P6SM SCT008
       
KCNO 270453Z AUTO 28005KT 10SM CLR 26/13 A2991 RMK AO2 SLP120 T02610133
KSMO 270451Z AUTO 25003KT 10SM CLR 21/18 A2989 RMK AO2 SLP119 T02110178
KLGB 270453Z 30005KT 10SM CLR 23/18 A2988 RMK AO2 SLP117 T02330178
KLGB 262348Z 2700/2724 30008KT P6SM FEW120 SCT200 
     FM270400 30005KT P6SM SCT200 
     FM271000 VRB03KT P6SM BKN008 
     FM271600 19006KT P6SM FEW120 SCT200 
     FM272300 29009KT P6SM FEW120 SCT200
       
KVNY 270451Z 13006KT 10SM FU CLR 27/13 A2988 RMK AO2 SLP108 T02670133
KVNY 262348Z 2700/2724 13010KT P6SM FEW120 SCT200 
     FM270100 28008KT P6SM FEW120 SCT200 
     FM270400 11005KT P6SM SCT200 
     FM271900 14010KT P6SM FEW120 SCT200
       
KBUR 270453Z 12009KT 10SM CLR 24/15 A2989 RMK AO2 SLP106 T02440150
KBUR 262325Z 2700/2724 17010KT P6SM FEW070 SCT200 
     FM270400 12006KT P6SM SCT200 
     FM271900 17010KT P6SM FEW070 SCT200
       
KBFL 270454Z 01006KT 10SM CLR 34/06 A2981 RMK AO2 SLP087 T03390061
KBFL 262320Z 2700/2724 29010KT P6SM SKC 
     FM270300 02006KT P6SM SKC 
     FM270900 VRB03KT P6SM SKC 
     FM272100 30009KT P6SM SKC
       
KPMD 270453Z AUTO 23006KT 10SM CLR 31/06 A2997 RMK AO2 SLP108 T03060061 $
KPMD 270215Z 2702/2724 23010KT P6SM SCT200 
     FM270700 20006KT P6SM SCT200 
     FM272100 24015G25KT P6SM FEW100 SCT200
       
KOXR 270451Z AUTO 28004KT 10SM FEW007 19/17 A2987 RMK AO2 SLP115 T01890172
KOXR 270215Z 2702/2724 26010KT P6SM FEW008 FEW120 
     FM270600 27008KT P6SM BKN007 
     FM270800 VRB05KT 6SM BR OVC005 
     FM271700 26010KT P6SM FEW120
       
KWJF 270456Z 23011KT 10SM CLR 31/05 A2994 RMK AO2 SLP110 T03060050
KWJF 270259Z 2703/2724 23010KT P6SM SCT200 
     FM272100 23015G25KT P6SM FEW100 SCT200
       
KCMA 270455Z 29005KT 10SM CLR 20/17 A2987 RMK AO2 SLP122 T02000172
KFAT 270453Z COR 29007KT 10SM FEW100 33/11 A2981 RMK AO2 SLP088 T03280111
KFAT 262320Z 2700/2724 31009KT P6SM FEW120 
     FM270900 VRB03KT P6SM SKC 
     FM272100 30007KT P6SM SKC
       
KEED 270456Z AUTO 21007KT 10SM BKN120 42/11 A2973 RMK AO2 SLP024 T04170106
KEED 262320Z 2700/2724 21008KT P6SM SCT080 BKN100 
     FM270300 24008KT P6SM FEW100 
     FM271200 VRB05KT P6SM FEW250 
     FM271900 20008KT P6SM FEW250
       
KLSV 270458Z AUTO 11007KT 10SM CLR 38/07 A2978 RMK AO2 SLPNO T03820069 $
TAF KLSV 270103Z 2701/2807 18009KT 9999 FEW200 QNH2972INS 
     BECMG 2708/2709 VRB06KT 9999 FEW200 QNH2978INS 
     BECMG 2717/2718 17009KT 9999 FEW200 QNH2972INS 
     TEMPO 2721/2801 18012G18KT 510009 
     BECMG 2802/2803 VRB06KT 9999 SCT250 QNH2971INS TX43/2723Z TN29/2712Z
       
KLAS 270456Z 21004KT 10SM FEW110 41/04 A2978 RMK AO2 SLP049 T04060039
KLAS 270249Z 2703/2724 VRB05KT P6SM FEW110 
     FM270400 20006KT P6SM FEW250 
     FM271400 VRB06KT P6SM FEW250
       
KHII 270450Z AUTO 14010KT 10SM CLR 41/13 A2973 RMK AO2
KIFP 270515Z AUTO 00000KT 10SM CLR 39/13 A2971 RMK AO2
KIFP 262320Z 2700/2724 20010KT P6SM SCT080 BKN100 
     FM270600 16007KT P6SM FEW100 
     FM271500 22010KT P6SM FEW250